Aviation Digital Data Service (ADDS)

Output produced by METARs form (1642 UTC 26 September 2021)
found at http://www.aviationweather.gov/metar/data/
 
Forecast for: ROAH (NAHA (CIV/JASDF), JP)
Text: TAF ROAH 261105Z 2612/2718 05011KT 9999 FEW015 SCT025
Forecast period: 1200 UTC 26 September 2021 to 1800 UTC 27 September 2021
Forecast type: FROM: standard forecast or significant change
Winds: from the NE (50 degrees) at 13 MPH (11 knots; 5.7 m/s)
Visibility: 6 or more miles (10+ km)
Ceiling: at least 12,000 feet AGL
Clouds: few clouds at 1500 feet AGL
scattered clouds at 2500 feet AGL
Weather: no significant weather forecast for this period
Text: TEMPO 2703/2709 4000 SHRA FEW010 BKN020 FEW025CB
Forecast period: 0300 to 0900 UTC 27 September 2021
Forecast type: TEMPORARY: The following changes expected for less than half the time period
Visibility: 2.49 miles (4.01 km)
Ceiling: 2000 feet AGL
Clouds: few clouds at 1000 feet AGL
broken clouds at 2000 feet AGL
few clouds at 2500 feet AGL
Weather: SHRA  (rain showers)